Time;durP1;ratioP1;P1;durP2;ratioP2;P2;SDS_P1;SDS_P2;PMS_P1;PMS_P2;Temp;Humidity;BMP_temperature;BMP_pressure;BME280_temperature;BME280_humidity;BME280_pressure;Samples;Min_cycle;Max_cycle;Signal;HPM_P1;HPM_P2
2021/06/25 00:00:33;;;;;;;5.30;4.30;;;15.00;88.90;;;;;;5035015;28;20060;-67
2021/06/25 00:02:59;;;;;;;4.75;4.32;;;14.90;89.10;;;;;;5034802;28;20028;-67
2021/06/25 00:05:24;;;;;;;7.13;5.32;;;14.90;89.30;;;;;;5034726;28;20392;-67
2021/06/25 00:07:50;;;;;;;5.82;5.22;;;14.80;89.30;;;;;;5035115;28;20025;-67
2021/06/25 00:10:15;;;;;;;5.78;5.20;;;14.70;89.30;;;;;;5033873;28;20028;-67
2021/06/25 00:12:41;;;;;;;6.00;5.47;;;14.60;89.40;;;;;;5033465;28;20018;-67
2021/06/25 00:15:08;;;;;;;5.75;5.18;;;14.60;89.50;;;;;;5033569;28;20025;-67
2021/06/25 00:17:34;;;;;;;6.80;5.05;;;14.50;89.70;;;;;;5034347;28;20033;-67
2021/06/25 00:20:00;;;;;;;5.30;4.80;;;14.40;89.90;;;;;;5035919;28;20041;-67
2021/06/25 00:22:26;;;;;;;5.30;4.85;;;14.30;90.00;;;;;;5033162;28;20028;-67
2021/06/25 00:24:52;;;;;;;5.97;5.18;;;14.30;90.10;;;;;;5034985;28;20029;-67
2021/06/25 00:27:17;;;;;;;6.47;5.78;;;14.20;90.10;;;;;;5033618;28;20032;-67
2021/06/25 00:29:43;;;;;;;6.30;5.63;;;14.20;90.20;;;;;;5033295;28;20208;-67
2021/06/25 00:32:09;;;;;;;6.00;5.40;;;14.20;90.20;;;;;;5034626;28;20409;-67
2021/06/25 00:34:34;;;;;;;6.00;5.40;;;14.10;90.20;;;;;;5038973;28;20037;-67
2021/06/25 00:37:00;;;;;;;5.82;5.30;;;14.00;90.30;;;;;;5043740;28;20021;-67
2021/06/25 00:39:26;;;;;;;6.22;5.63;;;14.00;90.40;;;;;;5042346;28;20026;-67
2021/06/25 00:41:51;;;;;;;6.35;5.75;;;13.90;90.50;;;;;;5041517;28;20041;-67
2021/06/25 00:44:18;;;;;;;7.10;5.75;;;13.80;90.50;;;;;;5040278;28;20366;-67
2021/06/25 00:46:45;;;;;;;6.70;5.88;;;13.80;90.60;;;;;;5039544;28;20028;-67
2021/06/25 00:49:11;;;;;;;6.03;5.43;;;13.70;90.60;;;;;;5039654;28;20191;-67
2021/06/25 00:51:37;;;;;;;8.38;6.43;;;13.70;90.60;;;;;;5037488;28;20483;-67
2021/06/25 00:54:04;;;;;;;7.78;6.82;;;13.70;90.70;;;;;;5043553;28;20100;-67
2021/06/25 00:56:29;;;;;;;9.30;6.57;;;13.60;90.70;;;;;;5040618;28;20396;-67
2021/06/25 00:58:55;;;;;;;9.23;6.63;;;13.60;91.00;;;;;;5041778;28;20033;-67
2021/06/25 01:01:21;;;;;;;7.93;6.53;;;13.50;90.80;;;;;;5039880;28;20025;-67
2021/06/25 01:03:46;;;;;;;7.70;6.90;;;13.50;90.80;;;;;;5043790;28;20103;-67
2021/06/25 01:06:12;;;;;;;7.18;6.47;;;13.50;90.90;;;;;;5040974;28;20021;-67
2021/06/25 01:08:38;;;;;;;8.23;6.68;;;13.40;90.80;;;;;;5040072;28;20025;-67
2021/06/25 01:11:04;;;;;;;8.85;6.97;;;13.40;90.90;;;;;;5039779;28;20103;-67
2021/06/25 01:13:31;;;;;;;8.02;7.22;;;13.40;90.90;;;;;;5039005;28;20120;-67
2021/06/25 01:15:57;;;;;;;7.88;6.95;;;13.30;90.90;;;;;;5038925;28;20018;-67
2021/06/25 01:18:22;;;;;;;8.85;7.78;;;13.30;91.00;;;;;;5040221;28;20027;-67
2021/06/25 01:20:48;;;;;;;8.80;7.72;;;13.20;91.10;;;;;;5046408;28;20041;-67
2021/06/25 01:23:13;;;;;;;7.40;6.68;;;13.20;91.10;;;;;;5042082;28;20037;-67
2021/06/25 01:25:39;;;;;;;8.05;7.10;;;13.10;91.20;;;;;;5040056;28;20025;-67
2021/06/25 01:28:08;;;;;;;8.93;7.35;;;13.00;91.30;;;;;;5039523;28;20017;-67
2021/06/25 01:30:39;;;;;;;8.63;7.68;;;13.00;91.40;;;;;;5037903;28;20052;-67
2021/06/25 01:33:09;;;;;;;8.05;7.18;;;12.90;91.40;;;;;;5038747;28;20097;-67
2021/06/25 01:35:35;;;;;;;;;;;12.90;91.50;;;;;;5038889;28;20045;-67
2021/06/25 01:38:01;;;;;;;8.07;6.63;;;12.80;91.50;;;;;;5041018;28;19955;-67
2021/06/25 01:40:27;;;;;;;8.40;7.50;;;12.70;91.70;;;;;;5042286;28;20480;-67
2021/06/25 01:42:52;;;;;;;7.90;6.70;;;12.70;91.70;;;;;;5039228;28;20033;-67
2021/06/25 01:45:21;;;;;;;8.75;7.20;;;12.70;91.70;;;;;;5036650;28;20497;-67
2021/06/25 01:47:48;;;;;;;8.48;7.25;;;12.60;91.70;;;;;;5035683;28;20480;-67
2021/06/25 01:50:19;;;;;;;6.90;6.18;;;12.60;91.70;;;;;;5035522;28;20109;-67
2021/06/25 01:52:47;;;;;;;7.20;6.30;;;12.50;91.80;;;;;;5035034;28;20018;-67
2021/06/25 01:55:13;;;;;;;8.13;7.13;;;12.40;91.90;;;;;;5038035;28;20036;-67
2021/06/25 01:57:39;;;;;;;10.98;8.20;;;12.40;92.30;;;;;;5038641;28;20021;-67
2021/06/25 02:00:05;;;;;;;9.88;7.80;;;12.30;91.90;;;;;;5036511;28;20075;-67
2021/06/25 02:02:31;;;;;;;9.90;7.43;;;12.30;92.00;;;;;;5035963;28;20030;-68
2021/06/25 02:04:57;;;;;;;9.05;7.28;;;12.30;92.00;;;;;;5021558;28;20316;-67
2021/06/25 02:07:22;;;;;;;9.90;8.30;;;12.30;92.00;;;;;;5035293;28;20025;-67
2021/06/25 02:09:48;;;;;;;10.85;8.32;;;12.30;91.90;;;;;;5037672;28;20045;-67
2021/06/25 02:12:13;;;;;;;8.63;7.40;;;12.20;91.90;;;;;;5034363;28;20073;-67
2021/06/25 02:14:39;;;;;;;9.20;7.93;;;12.20;91.90;;;;;;5035899;28;20354;-67
2021/06/25 02:17:04;;;;;;;11.05;7.13;;;12.20;92.00;;;;;;5035427;28;20018;-67
2021/06/25 02:19:30;;;;;;;8.07;7.22;;;12.10;92.00;;;;;;5034207;28;20061;-67
2021/06/25 02:21:55;;;;;;;8.63;5.72;;;12.00;92.00;;;;;;5037892;28;20084;-67
2021/06/25 02:24:21;;;;;;;9.50;4.70;;;11.80;92.20;;;;;;5036410;28;20028;-67
2021/06/25 02:26:47;;;;;;;6.85;4.88;;;11.70;92.20;;;;;;5036296;28;20025;-67
2021/06/25 02:29:12;;;;;;;5.88;4.68;;;11.50;92.40;;;;;;5035260;28;20474;-67
2021/06/25 02:31:38;;;;;;;4.72;3.88;;;11.40;92.60;;;;;;5034330;28;20067;-67
2021/06/25 02:34:04;;;;;;;4.82;3.40;;;11.40;92.70;;;;;;5034457;28;20022;-67
2021/06/25 02:36:29;;;;;;;4.90;3.33;;;11.40;92.70;;;;;;5034160;28;20026;-67
2021/06/25 02:38:55;;;;;;;10.20;2.95;;;11.30;92.70;;;;;;5037612;28;20024;-67
2021/06/25 02:41:20;;;;;;;13.65;2.03;;;11.30;92.70;;;;;;5036351;28;20025;-67
2021/06/25 02:43:47;;;;;;;4.38;2.33;;;11.20;92.80;;;;;;5036946;28;20059;-67
2021/06/25 02:46:13;;;;;;;2.35;1.75;;;11.20;92.80;;;;;;5035181;28;20368;-67
2021/06/25 02:48:39;;;;;;;4.43;1.90;;;11.10;92.80;;;;;;5036626;28;20477;-67
2021/06/25 02:51:05;;;;;;;2.60;2.10;;;11.10;92.80;;;;;;5034040;28;20030;-67
2021/06/25 02:53:30;;;;;;;2.38;1.80;;;11.10;92.80;;;;;;5032506;28;20021;-67
2021/06/25 02:55:56;;;;;;;2.90;2.33;;;11.10;92.80;;;;;;5038462;28;20021;-67
2021/06/25 02:58:23;;;;;;;5.50;3.17;;;11.10;92.80;;;;;;5035606;28;20052;-67
2021/06/25 03:00:49;;;;;;;4.03;3.47;;;11.00;92.80;;;;;;5036825;28;20040;-67
2021/06/25 03:03:15;;;;;;;4.55;3.50;;;11.00;92.90;;;;;;5036058;28;20025;-67
2021/06/25 03:05:41;;;;;;;9.68;6.90;;;11.00;92.90;;;;;;5035862;28;20108;-67
2021/06/25 03:08:06;;;;;;;11.05;8.73;;;11.00;92.80;;;;;;5037288;28;20100;-67
2021/06/25 03:10:32;;;;;;;12.63;8.63;;;10.90;92.90;;;;;;5033749;28;20025;-67
2021/06/25 03:12:58;;;;;;;9.98;8.38;;;10.90;93.00;;;;;;5034251;28;20071;-67
2021/06/25 03:15:23;;;;;;;11.05;8.73;;;10.90;93.10;;;;;;5034082;28;20199;-67
2021/06/25 03:17:49;;;;;;;11.52;8.05;;;10.90;93.20;;;;;;5034215;28;20407;-67
2021/06/25 03:20:15;;;;;;;8.80;6.85;;;10.90;93.30;;;;;;5034634;28;20087;-67
2021/06/25 03:22:40;;;;;;;8.48;7.05;;;10.90;93.30;;;;;;5035516;28;20021;-67
2021/06/25 03:25:07;;;;;;;9.18;7.80;;;10.90;93.30;;;;;;5037077;28;20017;-67
2021/06/25 03:27:33;;;;;;;12.38;9.82;;;10.90;93.30;;;;;;5033262;28;20031;-67
2021/06/25 03:29:58;;;;;;;16.73;14.05;;;10.80;93.60;;;;;;5033816;28;20021;-67
2021/06/25 03:32:24;;;;;;;15.32;12.23;;;10.60;94.00;;;;;;5033766;28;20485;-67
2021/06/25 03:34:49;;;;;;;18.52;13.88;;;10.50;94.30;;;;;;5033424;28;20049;-67
2021/06/25 03:37:15;;;;;;;15.45;12.63;;;10.40;94.60;;;;;;5035763;28;20527;-67
2021/06/25 03:39:41;;;;;;;13.75;11.45;;;10.40;94.80;;;;;;5035230;28;20021;-67
2021/06/25 03:42:07;;;;;;;13.02;10.95;;;10.50;94.90;;;;;;5036870;28;20025;-67
2021/06/25 03:44:32;;;;;;;13.25;10.02;;;10.50;94.90;;;;;;5034222;28;20022;-67
2021/06/25 03:46:58;;;;;;;13.75;10.82;;;10.70;94.90;;;;;;5033528;28;20108;-67
2021/06/25 03:49:24;;;;;;;17.15;13.70;;;10.60;94.90;;;;;;5032228;28;20101;-67
2021/06/25 03:51:50;;;;;;;20.83;15.88;;;10.70;95.10;;;;;;5033211;28;20021;-67
2021/06/25 03:54:16;;;;;;;18.80;13.90;;;10.60;95.40;;;;;;5035401;28;20579;-67
2021/06/25 03:56:42;;;;;;;16.52;12.98;;;10.60;95.60;;;;;;5035393;28;20017;-67
2021/06/25 03:59:07;;;;;;;15.98;12.75;;;10.70;95.70;;;;;;5035217;28;20432;-67
2021/06/25 04:01:33;;;;;;;13.55;10.77;;;10.70;95.80;;;;;;5032433;28;20017;-67
2021/06/25 04:03:58;;;;;;;15.85;12.25;;;10.80;95.90;;;;;;5035173;28;20084;-67
2021/06/25 04:06:24;;;;;;;20.30;15.27;;;10.80;96.00;;;;;;5036526;28;20036;-67
2021/06/25 04:08:50;;;;;;;22.75;17.23;;;10.90;96.30;;;;;;5034317;28;20037;-67
2021/06/25 04:11:17;;;;;;;21.83;17.90;;;10.90;96.60;;;;;;5035253;28;20040;-67
2021/06/25 04:13:43;;;;;;;27.00;19.08;;;11.00;96.80;;;;;;5033512;28;20045;-67
2021/06/25 04:16:09;;;;;;;24.50;18.88;;;11.00;97.20;;;;;;5034252;28;20457;-67
2021/06/25 04:18:34;;;;;;;22.00;17.33;;;11.10;97.70;;;;;;5033209;28;20104;-67
2021/06/25 04:21:00;;;;;;;22.67;17.25;;;11.10;97.60;;;;;;5035035;28;20041;-67
2021/06/25 04:23:26;;;;;;;20.60;15.57;;;11.20;97.60;;;;;;5036890;28;20021;-67
2021/06/25 04:25:51;;;;;;;21.25;17.02;;;11.20;97.60;;;;;;5032778;28;20394;-67
2021/06/25 04:28:17;;;;;;;17.98;14.88;;;11.30;97.60;;;;;;5034811;28;20028;-67
2021/06/25 04:30:43;;;;;;;19.40;16.02;;;11.40;97.60;;;;;;5032971;28;20466;-67
2021/06/25 04:33:12;;;;;;;25.58;19.40;;;11.40;97.60;;;;;;5033107;28;20025;-67
2021/06/25 04:35:38;;;;;;;24.48;18.95;;;11.40;97.90;;;;;;5032677;28;20426;-67
2021/06/25 04:38:04;;;;;;;24.67;18.70;;;11.40;98.10;;;;;;5033652;28;20476;-67
2021/06/25 04:40:35;;;;;;;26.73;18.88;;;11.50;98.30;;;;;;5036703;28;20021;-67
2021/06/25 04:43:01;;;;;;;21.58;17.67;;;11.50;98.50;;;;;;5033958;28;20036;-67
2021/06/25 04:45:27;;;;;;;20.52;16.75;;;11.50;98.60;;;;;;5034944;28;20025;-67
2021/06/25 04:47:52;;;;;;;22.83;17.85;;;11.50;98.70;;;;;;5033025;28;20505;-67
2021/06/25 04:50:18;;;;;;;21.48;18.10;;;11.60;98.80;;;;;;5033246;28;20025;-67
2021/06/25 04:52:44;;;;;;;23.13;18.63;;;11.60;98.90;;;;;;5032325;28;20063;-67
2021/06/25 04:55:09;;;;;;;21.15;17.42;;;11.70;99.00;;;;;;5030908;28;20013;-67
2021/06/25 04:57:37;;;;;;;22.88;18.17;;;11.70;99.10;;;;;;5036534;28;20039;-67
2021/06/25 05:00:05;;;;;;;21.48;17.45;;;11.80;99.20;;;;;;5033773;28;20044;-67
2021/06/25 05:02:30;;;;;;;22.38;18.05;;;11.80;99.30;;;;;;5032454;28;20048;-67
2021/06/25 05:04:56;;;;;;;22.65;18.02;;;11.90;99.40;;;;;;5034435;28;20056;-67
2021/06/25 05:07:21;;;;;;;25.50;17.42;;;11.90;99.50;;;;;;5033949;28;20040;-67
2021/06/25 05:09:47;;;;;;;20.75;17.15;;;12.00;99.50;;;;;;5035395;28;20021;-67
2021/06/25 05:12:12;;;;;;;18.33;15.93;;;12.00;99.50;;;;;;5033411;28;20473;-67
2021/06/25 05:14:38;;;;;;;21.10;16.73;;;12.10;99.40;;;;;;5033764;28;20025;-67
2021/06/25 05:17:03;;;;;;;17.88;14.63;;;12.20;99.30;;;;;;5052010;28;20033;-67
2021/06/25 05:19:29;;;;;;;21.30;16.27;;;12.20;99.20;;;;;;5053881;28;20440;-67
2021/06/25 05:21:54;;;;;;;19.45;16.15;;;12.30;99.10;;;;;;5056239;28;20114;-67
2021/06/25 05:24:20;;;;;;;22.75;17.00;;;12.40;99.00;;;;;;5055802;28;20021;-67
2021/06/25 05:26:45;;;;;;;25.52;18.52;;;12.40;98.80;;;;;;5055725;28;20472;-67
2021/06/25 05:29:11;;;;;;;16.90;14.93;;;12.50;98.70;;;;;;5055853;28;20029;-67
2021/06/25 05:31:36;;;;;;;21.00;16.25;;;12.50;98.60;;;;;;5055803;28;20029;-67
2021/06/25 05:34:02;;;;;;;17.83;14.95;;;12.60;98.50;;;;;;5056027;28;20029;-67
2021/06/25 05:36:27;;;;;;;22.63;18.17;;;12.60;98.40;;;;;;5066196;28;20021;-67
2021/06/25 05:38:53;;;;;;;24.60;18.83;;;12.70;98.10;;;;;;5055755;28;20044;-67
2021/06/25 05:41:19;;;;;;;20.60;16.58;;;12.70;97.90;;;;;;5055974;28;20029;-67
2021/06/25 05:43:44;;;;;;;18.88;15.70;;;12.70;97.80;;;;;;5055631;28;20040;-67
2021/06/25 05:46:11;;;;;;;16.17;13.85;;;12.80;97.70;;;;;;5055716;28;20033;-67
2021/06/25 05:48:36;;;;;;;19.08;16.02;;;12.90;97.70;;;;;;5055345;28;20120;-67
2021/06/25 05:51:03;;;;;;;20.02;15.57;;;13.00;97.60;;;;;;5054402;28;20053;-67
2021/06/25 05:53:30;;;;;;;25.75;19.33;;;13.10;97.50;;;;;;5055742;28;20362;-67
2021/06/25 05:55:56;;;;;;;27.75;20.27;;;13.20;97.60;;;;;;5053177;28;20013;-67
2021/06/25 05:58:22;;;;;;;26.33;21.58;;;13.20;97.60;;;;;;5055045;28;20078;-67
2021/06/25 06:00:47;;;;;;;30.33;23.70;;;13.30;97.60;;;;;;5058163;28;20032;-68
2021/06/25 06:03:13;;;;;;;35.05;24.10;;;13.40;97.80;;;;;;5062920;28;20172;-67
2021/06/25 06:05:38;;;;;;;33.85;24.25;;;13.50;97.80;;;;;;5057395;28;20025;-67
2021/06/25 06:08:05;;;;;;;34.90;24.63;;;13.50;97.80;;;;;;5066152;28;20119;-67
2021/06/25 06:10:30;;;;;;;31.13;25.23;;;13.60;97.90;;;;;;5055204;28;20507;-67
2021/06/25 06:12:56;;;;;;;30.77;23.70;;;13.60;97.90;;;;;;5055072;28;20025;-67
2021/06/25 06:15:22;;;;;;;34.38;24.65;;;13.70;97.90;;;;;;5055205;28;20052;-67
2021/06/25 06:17:48;;;;;;;37.85;26.58;;;13.80;98.00;;;;;;5054731;28;20519;-67
2021/06/25 06:20:19;;;;;;;28.23;22.65;;;13.90;97.90;;;;;;5058450;28;20041;-67
2021/06/25 06:31:11;;;;;;;34.97;26.30;;;14.20;97.30;;;;;;5034553;28;20033;-67
2021/06/25 06:36:20;;;;;;;31.45;24.58;;;14.30;97.30;;;;;;5035161;28;19905;-67
2021/06/25 06:38:46;;;;;;;27.95;23.33;;;14.40;97.30;;;;;;5033526;28;20397;-67
2021/06/25 06:41:12;;;;;;;32.92;26.08;;;14.60;97.20;;;;;;5034814;28;20038;-67
2021/06/25 06:43:39;;;;;;;33.55;25.52;;;14.70;97.10;;;;;;5055320;28;20024;-67
2021/06/25 06:46:05;;;;;;;37.88;26.80;;;14.70;96.80;;;;;;5052292;28;20106;-67
2021/06/25 06:48:30;;;;;;;36.65;28.02;;;14.80;96.60;;;;;;5053360;28;20059;-67
2021/06/25 06:50:56;;;;;;;36.60;27.38;;;14.80;96.80;;;;;;5052517;28;20392;-67
2021/06/25 06:53:21;;;;;;;37.08;27.33;;;14.80;96.70;;;;;;5054367;28;20025;-67
2021/06/25 06:55:47;;;;;;;32.13;25.25;;;14.80;96.60;;;;;;5053926;28;20029;-67
2021/06/25 06:58:13;;;;;;;32.65;25.60;;;14.90;96.70;;;;;;5053944;28;20087;-67
2021/06/25 07:00:39;;;;;;;34.08;26.38;;;14.90;96.70;;;;;;5053888;28;20029;-68
2021/06/25 07:03:05;;;;;;;30.13;23.88;;;15.00;96.70;;;;;;5054117;28;20025;-67
2021/06/25 07:05:31;;;;;;;32.03;25.58;;;15.00;96.70;;;;;;5052288;28;20025;-66
2021/06/25 07:07:56;;;;;;;33.72;26.05;;;15.10;96.60;;;;;;5051955;28;20078;-67
2021/06/25 07:10:22;;;;;;;35.30;27.58;;;15.10;96.40;;;;;;5050226;28;20095;-66
2021/06/25 07:12:48;;;;;;;35.90;27.75;;;15.10;96.40;;;;;;5052918;28;20023;-66
2021/06/25 07:15:13;;;;;;;39.80;30.42;;;15.10;96.30;;;;;;5053903;28;20435;-66
2021/06/25 07:17:39;;;;;;;36.08;27.70;;;15.10;96.20;;;;;;5051849;28;20033;-66
2021/06/25 07:20:06;;;;;;;34.95;27.45;;;15.20;96.10;;;;;;5052556;28;20123;-66
2021/06/25 07:22:32;;;;;;;29.23;23.25;;;15.20;96.00;;;;;;5050558;28;20033;-66
2021/06/25 07:24:57;;;;;;;33.03;26.10;;;15.20;96.00;;;;;;5050138;28;20029;-65
2021/06/25 07:27:23;;;;;;;37.13;27.83;;;15.30;95.90;;;;;;5051453;28;20027;-66
2021/06/25 07:29:49;;;;;;;30.23;24.13;;;15.30;95.70;;;;;;5052644;28;20037;-66
2021/06/25 07:32:15;;;;;;;39.75;28.27;;;15.30;95.60;;;;;;5052627;28;20493;-66
2021/06/25 07:34:41;;;;;;;38.13;28.15;;;15.30;95.40;;;;;;5050762;28;20424;-66
2021/06/25 07:37:06;;;;;;;41.03;31.42;;;15.30;95.40;;;;;;5052366;28;20031;-66
2021/06/25 07:39:32;;;;;;;41.63;30.95;;;15.20;95.50;;;;;;5048586;28;20028;-66
2021/06/25 07:41:57;;;;;;;39.05;31.80;;;15.20;95.50;;;;;;5049135;28;20094;-66
2021/06/25 07:44:23;;;;;;;43.25;31.20;;;15.20;95.30;;;;;;5052554;28;20106;-67
2021/06/25 07:46:49;;;;;;;47.13;35.15;;;15.30;95.40;;;;;;5052479;28;20506;-66
2021/06/25 07:49:15;;;;;;;46.50;33.30;;;15.30;95.50;;;;;;5052239;28;20509;-66
2021/06/25 07:51:40;;;;;;;47.25;33.70;;;15.30;95.70;;;;;;5050965;28;20094;-66
2021/06/25 07:54:06;;;;;;;45.33;34.45;;;15.20;95.70;;;;;;5053274;28;20087;-66
2021/06/25 07:56:31;;;;;;;44.85;32.53;;;15.30;95.70;;;;;;5053086;28;20032;-66
2021/06/25 07:58:57;;;;;;;42.08;31.50;;;15.30;95.50;;;;;;5053097;28;20079;-66
2021/06/25 08:01:25;;;;;;;46.97;33.90;;;15.30;95.40;;;;;;5052871;28;20548;-66
2021/06/25 08:03:51;;;;;;;42.95;32.33;;;15.30;95.40;;;;;;5053175;28;20021;-67
2021/06/25 08:06:16;;;;;;;37.50;29.42;;;15.40;95.30;;;;;;5053168;28;20055;-66
2021/06/25 08:08:42;;;;;;;42.15;31.95;;;15.40;95.40;;;;;;5052491;28;20540;-66
2021/06/25 08:11:07;;;;;;;46.05;34.28;;;15.40;95.50;;;;;;5053075;28;20036;-65
2021/06/25 08:13:33;;;;;;;41.60;31.58;;;15.40;95.50;;;;;;5052743;28;20078;-66
2021/06/25 08:15:59;;;;;;;44.15;33.97;;;15.40;95.60;;;;;;5053055;28;20401;-66
2021/06/25 08:18:24;;;;;;;42.20;32.67;;;15.40;95.80;;;;;;5052654;28;20036;-65
2021/06/25 08:20:50;;;;;;;41.45;32.78;;;15.50;95.70;;;;;;5052727;28;20116;-65
2021/06/25 08:23:16;;;;;;;39.88;31.00;;;15.50;95.60;;;;;;5052809;28;20028;-66
2021/06/25 08:25:41;;;;;;;40.92;31.65;;;15.60;95.50;;;;;;5052848;28;20536;-66
2021/06/25 08:28:07;;;;;;;40.30;31.35;;;15.50;95.50;;;;;;5052614;28;20028;-66
2021/06/25 08:30:33;;;;;;;38.03;30.52;;;15.60;95.50;;;;;;5052630;28;20017;-67
2021/06/25 08:32:58;;;;;;;38.50;30.75;;;15.60;95.50;;;;;;5034963;28;20151;-66
2021/06/25 08:35:24;;;;;;;42.85;31.65;;;15.60;95.60;;;;;;5052704;28;20488;-67
2021/06/25 08:37:51;;;;;;;39.70;30.25;;;15.70;95.50;;;;;;5052086;28;20108;-67
2021/06/25 08:40:17;;;;;;;40.22;28.33;;;15.70;95.40;;;;;;5052336;28;20438;-67
2021/06/25 08:42:43;;;;;;;37.53;29.73;;;15.80;95.50;;;;;;5052486;28;20494;-67
2021/06/25 08:45:11;;;;;;;36.30;28.98;;;15.90;95.50;;;;;;5052643;28;20037;-67
2021/06/25 08:47:44;;;;;;;36.20;28.30;;;15.90;95.10;;;;;;5052288;28;20021;-67
2021/06/25 08:50:12;;;;;;;38.42;29.17;;;16.00;95.00;;;;;;5052359;28;20025;-66
2021/06/25 08:52:38;;;;;;;39.10;29.67;;;16.00;95.10;;;;;;5052353;28;20083;-66
2021/06/25 08:55:04;;;;;;;35.08;28.10;;;16.10;94.90;;;;;;5056165;28;20029;-66
2021/06/25 08:57:34;;;;;;;39.72;29.83;;;16.10;94.70;;;;;;5055603;28;20027;-66
2021/06/25 09:00:02;;;;;;;41.22;30.63;;;16.20;94.80;;;;;;5056506;28;20028;-66
2021/06/25 09:02:33;;;;;;;37.42;29.73;;;16.20;94.50;;;;;;5056482;28;20028;-66
2021/06/25 09:04:58;;;;;;;36.92;28.48;;;16.20;94.50;;;;;;5056540;28;20017;-66
2021/06/25 09:07:38;;;;;;;36.15;28.15;;;16.20;94.40;;;;;;5055810;28;20032;-67
2021/06/25 09:10:04;;;;;;;38.10;29.27;;;16.20;94.10;;;;;;5053535;28;20037;-66
2021/06/25 09:12:29;;;;;;;34.10;26.98;;;16.10;94.20;;;;;;5055908;28;20013;-66
2021/06/25 09:15:05;;;;;;;38.40;28.55;;;16.10;94.30;;;;;;5055882;28;20021;-67
2021/06/25 09:17:33;;;;;;;36.45;28.05;;;16.20;94.10;;;;;;5054197;28;20048;-67
2021/06/25 09:19:58;;;;;;;38.78;28.73;;;16.20;94.30;;;;;;5055486;28;20127;-67
2021/06/25 09:22:24;;;;;;;37.45;29.40;;;16.40;94.30;;;;;;5055479;28;20067;-67
2021/06/25 09:25:07;;;;;;;32.28;27.60;;;16.50;94.20;;;;;;5055718;28;20025;-67
2021/06/25 09:27:34;;;;;;;35.47;28.55;;;16.60;93.70;;;;;;5054294;28;20392;-67
2021/06/25 09:30:08;;;;;;;33.13;26.63;;;16.70;93.30;;;;;;5055485;28;20465;-67
2021/06/25 09:32:36;;;;;;;36.20;27.85;;;16.90;93.50;;;;;;5054142;28;20393;-67
2021/06/25 09:35:13;;;;;;;29.88;25.67;;;17.00;93.30;;;;;;5051538;28;20017;-67
2021/06/25 09:37:43;;;;;;;32.00;25.50;;;17.10;92.80;;;;;;5053841;28;20024;-67
2021/06/25 09:40:10;;;;;;;33.75;26.60;;;17.10;92.60;;;;;;5055360;28;20024;-67
2021/06/25 09:42:38;;;;;;;31.80;25.80;;;17.10;92.50;;;;;;5055331;28;20150;-67
2021/06/25 09:45:05;;;;;;;31.77;25.92;;;17.20;92.50;;;;;;5053039;28;20021;-67
2021/06/25 09:47:36;;;;;;;31.30;25.17;;;17.20;92.20;;;;;;5055166;28;20017;-66
2021/06/25 09:50:15;;;;;;;33.25;25.65;;;17.20;92.30;;;;;;5052601;28;20021;-66
2021/06/25 09:52:48;;;;;;;;;;;17.30;91.90;;;;;;5052733;28;20021;-66
2021/06/25 09:55:16;;;;;;;28.45;24.05;;;17.30;91.80;;;;;;5055228;28;20290;-67
2021/06/25 09:58:34;;;;;;;28.33;22.55;;;17.30;92.00;;;;;;5052186;28;20067;-67
2021/06/25 10:03:58;;;;;;;29.73;25.75;;;17.70;91.70;;;;;;5053295;28;20547;-67
2021/06/25 10:06:26;;;;;;;27.35;23.35;;;17.70;91.00;;;;;;5051961;28;20024;-67
2021/06/25 10:08:53;;;;;;;32.30;25.05;;;17.80;91.20;;;;;;5053181;28;20112;-67
2021/06/25 10:11:21;;;;;;;26.02;22.52;;;17.80;91.10;;;;;;5054581;28;20120;-66
2021/06/25 10:13:48;;;;;;;26.27;22.25;;;17.90;90.80;;;;;;5063286;28;20025;-66
2021/06/25 10:16:14;;;;;;;30.20;23.30;;;18.00;90.60;;;;;;5073040;28;20016;-67
2021/06/25 10:18:42;;;;;;;24.67;21.88;;;18.10;90.30;;;;;;5059867;28;20496;-67
2021/06/25 10:21:11;;;;;;;23.23;19.63;;;18.20;90.00;;;;;;5065628;28;20028;-67
2021/06/25 10:23:38;;;;;;;21.65;18.58;;;18.20;89.90;;;;;;5073558;28;20040;-67
2021/06/25 10:26:08;;;;;;;26.70;22.23;;;18.50;90.00;;;;;;5074964;28;20027;-67
2021/06/25 10:28:35;;;;;;;;;;;18.70;89.80;;;;;;5073868;28;20162;-67
2021/06/25 10:31:01;;;;;;;21.48;16.98;;;18.70;89.20;;;;;;5074803;28;19912;-67
2021/06/25 10:33:28;;;;;;;23.05;18.80;;;18.80;88.90;;;;;;5074703;28;20020;-67
2021/06/25 10:35:54;;;;;;;22.45;19.85;;;19.00;88.30;;;;;;5073501;28;20039;-67
2021/06/25 10:38:27;;;;;;;27.38;22.63;;;19.10;88.00;;;;;;5054315;28;20028;-67
2021/06/25 10:41:01;;;;;;;21.15;18.90;;;19.20;87.60;;;;;;5054814;28;20025;-67
2021/06/25 10:43:52;;;;;;;17.08;14.65;;;19.30;87.40;;;;;;5053386;28;20021;-67
2021/06/25 10:46:36;;;;;;;17.35;14.48;;;19.60;87.10;;;;;;5054560;28;20020;-67
2021/06/25 10:49:13;;;;;;;15.73;14.02;;;19.90;86.30;;;;;;5054480;28;20103;-66
2021/06/25 10:51:41;;;;;;;16.10;14.07;;;20.20;86.10;;;;;;5057097;28;20070;-67
2021/06/25 10:54:13;;;;;;;20.15;15.85;;;20.50;85.40;;;;;;5059079;28;20025;-67
2021/06/25 10:56:48;;;;;;;14.43;12.80;;;20.60;84.40;;;;;;5053562;28;20040;-67
2021/06/25 10:59:21;;;;;;;19.77;15.43;;;20.90;84.60;;;;;;5053771;28;20021;-67
2021/06/25 11:01:48;;;;;;;17.13;14.90;;;21.10;83.40;;;;;;5051343;28;20146;-67
2021/06/25 11:04:47;;;;;;;15.65;13.63;;;21.40;82.80;;;;;;5053753;28;20510;-67
2021/06/25 11:07:45;;;;;;;16.00;13.70;;;21.70;81.80;;;;;;5031128;28;20075;-67
2021/06/25 11:10:19;;;;;;;17.48;14.85;;;22.00;80.90;;;;;;5073947;28;20029;-67
2021/06/25 11:12:45;;;;;;;17.67;15.60;;;22.20;79.30;;;;;;5073855;28;20067;-67
2021/06/25 11:15:10;;;;;;;16.80;13.40;;;22.10;78.00;;;;;;5074247;28;20052;-67
2021/06/25 11:17:53;;;;;;;13.75;11.48;;;22.10;76.80;;;;;;5058929;28;20029;-67
2021/06/25 11:20:22;;;;;;;13.73;10.88;;;22.20;76.60;;;;;;5064573;28;20048;-67
2021/06/25 11:23:00;;;;;;;14.10;11.23;;;22.30;74.90;;;;;;5061351;28;20029;-67
2021/06/25 11:25:51;;;;;;;11.57;10.33;;;22.40;73.50;;;;;;5052060;28;20032;-67
2021/06/25 11:28:25;;;;;;;13.50;11.40;;;22.60;72.20;;;;;;5055391;28;20028;-67
2021/06/25 11:30:50;;;;;;;10.77;9.40;;;22.70;71.20;;;;;;5053140;28;20021;-67
2021/06/25 11:33:40;;;;;;;10.48;9.38;;;22.80;71.40;;;;;;5059853;28;20439;-67
2021/06/25 11:36:19;;;;;;;11.23;10.02;;;22.80;71.20;;;;;;5068321;28;20029;-67
2021/06/25 11:38:51;;;;;;;13.50;10.63;;;22.60;70.90;;;;;;5063530;28;20431;-68
2021/06/25 11:41:17;;;;;;;11.32;9.82;;;22.60;71.30;;;;;;5057552;28;20028;-68
2021/06/25 11:43:43;;;;;;;12.35;10.88;;;22.60;71.30;;;;;;5061923;28;20079;-68
2021/06/25 11:46:09;;;;;;;12.00;10.68;;;22.50;70.20;;;;;;5053217;28;20043;-67
2021/06/25 11:48:36;;;;;;;13.35;11.00;;;22.50;70.40;;;;;;5049911;28;20108;-67
2021/06/25 11:51:02;;;;;;;11.68;9.77;;;22.50;69.90;;;;;;5050716;28;20485;-67
2021/06/25 11:53:30;;;;;;;11.75;9.98;;;22.40;69.70;;;;;;5050838;28;20035;-67
2021/06/25 11:55:56;;;;;;;10.18;8.27;;;22.30;70.20;;;;;;5051234;28;20071;-67
2021/06/25 11:58:21;;;;;;;11.52;7.57;;;22.30;70.80;;;;;;5057140;28;20041;-68
2021/06/25 12:00:47;;;;;;;9.75;8.68;;;22.40;70.80;;;;;;5063042;28;20472;-68
2021/06/25 12:03:13;;;;;;;8.95;8.05;;;22.30;68.80;;;;;;5068688;28;20025;-67
2021/06/25 12:05:44;;;;;;;8.88;7.80;;;22.20;68.60;;;;;;5066008;28;20058;-67
2021/06/25 12:08:15;;;;;;;7.85;6.90;;;22.10;68.60;;;;;;5071782;28;20070;-68
2021/06/25 12:11:01;;;;;;;8.30;6.60;;;22.10;68.80;;;;;;5072871;28;20020;-68
2021/06/25 12:13:29;;;;;;;8.52;6.47;;;22.10;69.40;;;;;;5072629;28;20036;-67
2021/06/25 12:15:55;;;;;;;7.53;6.82;;;22.10;69.90;;;;;;5073042;28;20108;-67
2021/06/25 12:18:29;;;;;;;10.75;7.78;;;22.20;69.20;;;;;;5053120;28;20152;-68
2021/06/25 12:21:13;;;;;;;8.98;7.07;;;22.20;68.70;;;;;;5053370;28;20036;-67
2021/06/25 12:23:39;;;;;;;9.82;6.70;;;22.20;68.20;;;;;;5052781;28;20082;-67
2021/06/25 12:26:21;;;;;;;11.50;8.13;;;22.20;67.60;;;;;;5052723;28;20025;-67
2021/06/25 12:28:49;;;;;;;8.85;7.18;;;22.30;66.60;;;;;;5052228;28;20492;-67
2021/06/25 12:31:21;;;;;;;7.97;6.72;;;22.30;66.10;;;;;;5052658;28;20029;-68
2021/06/25 12:34:02;;;;;;;8.43;7.53;;;22.30;65.40;;;;;;5052799;28;20013;-68
2021/06/25 12:36:27;;;;;;;7.20;5.60;;;22.30;65.00;;;;;;5052860;28;20044;-68
2021/06/25 12:38:58;;;;;;;6.18;4.90;;;22.30;65.90;;;;;;5052704;28;20029;-67
2021/06/25 12:41:24;;;;;;;7.88;6.82;;;22.50;66.50;;;;;;5052505;28;20033;-68
2021/06/25 12:43:53;;;;;;;8.20;6.38;;;22.60;65.80;;;;;;5051412;28;20124;-68
2021/06/25 12:46:21;;;;;;;7.47;6.72;;;22.70;65.60;;;;;;5052653;28;20029;-67
2021/06/25 12:48:49;;;;;;;7.75;7.05;;;22.70;65.40;;;;;;5051124;28;20033;-68
2021/06/25 12:51:35;;;;;;;8.85;6.70;;;22.90;66.50;;;;;;5052574;28;20027;-68